sensor_id;sensor_type;location;lat;lon;timestamp;pressure;altitude;pressure_sealevel;temperature;humidity
26112;BME280;13829;48.990;8.346;2023-02-28T00:01:21;101359.41;;;-0.12;66.89
26112;BME280;13829;48.990;8.346;2023-02-28T00:03:48;101370.16;;;-0.06;66.24
26112;BME280;13829;48.990;8.346;2023-02-28T00:06:15;101366.38;;;-0.11;66.90
26112;BME280;13829;48.990;8.346;2023-02-28T00:08:42;101352.06;;;-0.20;66.96
26112;BME280;13829;48.990;8.346;2023-02-28T00:11:13;101364.59;;;-0.12;66.78
26112;BME280;13829;48.990;8.346;2023-02-28T00:13:43;101365.69;;;-0.09;67.00
26112;BME280;13829;48.990;8.346;2023-02-28T00:16:18;101358.63;;;-0.25;67.23
26112;BME280;13829;48.990;8.346;2023-02-28T00:18:47;101363.81;;;-0.25;67.28
26112;BME280;13829;48.990;8.346;2023-02-28T00:21:15;101365.38;;;-0.27;67.76
26112;BME280;13829;48.990;8.346;2023-02-28T00:23:42;101357.84;;;-0.24;67.92
26112;BME280;13829;48.990;8.346;2023-02-28T00:26:11;101360.59;;;-0.21;67.93
26112;BME280;13829;48.990;8.346;2023-02-28T00:28:38;101357.53;;;-0.28;67.71
26112;BME280;13829;48.990;8.346;2023-02-28T00:31:05;101360.59;;;-0.21;67.88
26112;BME280;13829;48.990;8.346;2023-02-28T00:33:32;101361.78;;;-0.15;67.53
26112;BME280;13829;48.990;8.346;2023-02-28T00:36:05;101364.97;;;-0.33;68.10
26112;BME280;13829;48.990;8.346;2023-02-28T00:38:33;101357.63;;;-0.27;67.60
26112;BME280;13829;48.990;8.346;2023-02-28T00:41:00;101367.75;;;-0.17;67.49
26112;BME280;13829;48.990;8.346;2023-02-28T00:43:32;101358.44;;;-0.28;68.17
26112;BME280;13829;48.990;8.346;2023-02-28T00:46:00;101368.56;;;-0.31;68.06
26112;BME280;13829;48.990;8.346;2023-02-28T00:48:27;101363.81;;;-0.25;68.32
26112;BME280;13829;48.990;8.346;2023-02-28T00:50:54;101366.56;;;-0.08;67.63
26112;BME280;13829;48.990;8.346;2023-02-28T00:53:21;101364.59;;;-0.26;68.19
26112;BME280;13829;48.990;8.346;2023-02-28T00:55:49;101363.41;;;-0.31;68.05
26112;BME280;13829;48.990;8.346;2023-02-28T00:58:16;101364.81;;;-0.36;68.62
26112;BME280;13829;48.990;8.346;2023-02-28T01:00:44;101360.81;;;-0.18;67.97
26112;BME280;13829;48.990;8.346;2023-02-28T01:03:15;101362.41;;;-0.20;67.61
26112;BME280;13829;48.990;8.346;2023-02-28T01:05:43;101366.09;;;-0.16;67.81
26112;BME280;13829;48.990;8.346;2023-02-28T01:08:10;101368.38;;;-0.07;67.54
26112;BME280;13829;48.990;8.346;2023-02-28T01:10:38;101369.84;;;-0.24;68.23
26112;BME280;13829;48.990;8.346;2023-02-28T01:13:05;101359.34;;;-0.27;68.27
26112;BME280;13829;48.990;8.346;2023-02-28T01:15:32;101362.41;;;-0.20;67.87
26112;BME280;13829;48.990;8.346;2023-02-28T01:18:00;101366.19;;;-0.14;67.64
26112;BME280;13829;48.990;8.346;2023-02-28T01:20:27;101358.03;;;-0.07;67.43
26112;BME280;13829;48.990;8.346;2023-02-28T01:22:54;101364.28;;;-0.04;67.07
26112;BME280;13829;48.990;8.346;2023-02-28T01:25:21;101360.91;;;-0.16;67.97
26112;BME280;13829;48.990;8.346;2023-02-28T01:27:48;101360.53;;;-0.22;67.85
26112;BME280;13829;48.990;8.346;2023-02-28T01:30:17;101361.59;;;-0.32;68.38
26112;BME280;13829;48.990;8.346;2023-02-28T01:32:44;101362.78;;;-0.27;68.30
26112;BME280;13829;48.990;8.346;2023-02-28T01:35:12;101364.19;;;-0.32;68.67
26112;BME280;13829;48.990;8.346;2023-02-28T01:37:39;101364.19;;;-0.32;68.37
26112;BME280;13829;48.990;8.346;2023-02-28T01:40:09;101362.59;;;-0.43;69.36
26112;BME280;13829;48.990;8.346;2023-02-28T01:42:37;101362.81;;;-0.54;69.67
26112;BME280;13829;48.990;8.346;2023-02-28T01:45:22;101361.63;;;-0.59;70.18
26112;BME280;13829;48.990;8.346;2023-02-28T01:47:57;101368.00;;;-0.40;69.51
26112;BME280;13829;48.990;8.346;2023-02-28T01:50:32;101356.47;;;-0.45;69.76
26112;BME280;13829;48.990;8.346;2023-02-28T01:53:07;101360.22;;;-0.54;70.30
26112;BME280;13829;48.990;8.346;2023-02-28T01:55:36;101354.25;;;-0.53;70.45
26112;BME280;13829;48.990;8.346;2023-02-28T01:58:07;101356.16;;;-0.50;70.36
26112;BME280;13829;48.990;8.346;2023-02-28T02:00:35;101353.94;;;-0.57;70.42
26112;BME280;13829;48.990;8.346;2023-02-28T02:03:08;101350.69;;;-0.55;70.44
26112;BME280;13829;48.990;8.346;2023-02-28T02:05:40;101352.88;;;-0.47;70.67
26112;BME280;13829;48.990;8.346;2023-02-28T02:08:17;101343.53;;;-0.59;71.17
26112;BME280;13829;48.990;8.346;2023-02-28T02:10:48;101353.84;;;-0.59;71.36
26112;BME280;13829;48.990;8.346;2023-02-28T02:13:41;101358.22;;;-0.85;72.52
26112;BME280;13829;48.990;8.346;2023-02-28T02:16:34;101343.34;;;-0.62;71.31
26112;BME280;13829;48.990;8.346;2023-02-28T02:19:33;101345.19;;;-0.73;72.18
26112;BME280;13829;48.990;8.346;2023-02-28T02:22:37;101339.84;;;-0.62;72.16
26112;BME280;13829;48.990;8.346;2023-02-28T02:25:19;101342.34;;;-0.64;71.93
26112;BME280;13829;48.990;8.346;2023-02-28T02:28:24;101345.50;;;-0.55;71.52
26112;BME280;13829;48.990;8.346;2023-02-28T02:31:20;101346.00;;;-0.74;72.50
26112;BME280;13829;48.990;8.346;2023-02-28T02:34:39;101341.03;;;-0.71;72.69
26112;BME280;13829;48.990;8.346;2023-02-28T02:37:24;101331.41;;;-0.73;73.07
26112;BME280;13829;48.990;8.346;2023-02-28T02:40:05;101332.09;;;-0.49;71.77
26112;BME280;13829;48.990;8.346;2023-02-28T02:42:43;101342.91;;;-0.55;71.84
26112;BME280;13829;48.990;8.346;2023-02-28T02:45:18;101343.31;;;-0.75;72.96
26112;BME280;13829;48.990;8.346;2023-02-28T02:47:46;101344.13;;;-0.63;72.29
26112;BME280;13829;48.990;8.346;2023-02-28T02:50:23;101346.09;;;-0.86;73.24
26112;BME280;13829;48.990;8.346;2023-02-28T02:52:56;101345.13;;;-0.74;72.70
26112;BME280;13829;48.990;8.346;2023-02-28T02:55:25;101351.16;;;-0.87;73.58
26112;BME280;13829;48.990;8.346;2023-02-28T02:57:57;101343.78;;;-0.94;73.86
26112;BME280;13829;48.990;8.346;2023-02-28T03:00:31;101350.66;;;-0.82;73.73
26112;BME280;13829;48.990;8.346;2023-02-28T03:03:01;101350.25;;;-0.88;74.00
26112;BME280;13829;48.990;8.346;2023-02-28T03:05:36;101344.09;;;-0.90;74.10
26112;BME280;13829;48.990;8.346;2023-02-28T03:08:06;101347.09;;;-0.84;74.15
26112;BME280;13829;48.990;8.346;2023-02-28T03:10:37;101349.78;;;-0.69;73.70
26112;BME280;13829;48.990;8.346;2023-02-28T03:13:51;101347.78;;;-0.73;73.80
26112;BME280;13829;48.990;8.346;2023-02-28T03:16:48;101344.31;;;-0.60;73.14
26112;BME280;13829;48.990;8.346;2023-02-28T03:19:40;101352.66;;;-0.64;73.54
26112;BME280;13829;48.990;8.346;2023-02-28T03:22:33;101337.88;;;-0.67;74.01
26112;BME280;13829;48.990;8.346;2023-02-28T03:25:12;101341.16;;;-0.56;72.94
26112;BME280;13829;48.990;8.346;2023-02-28T03:28:00;101342.81;;;-0.56;73.07
26112;BME280;13829;48.990;8.346;2023-02-28T03:30:38;101341.13;;;-0.42;73.03
26112;BME280;13829;48.990;8.346;2023-02-28T03:33:12;101341.31;;;-0.66;73.77
26112;BME280;13829;48.990;8.346;2023-02-28T03:35:45;101343.72;;;-0.42;73.42
26112;BME280;13829;48.990;8.346;2023-02-28T03:38:22;101336.56;;;-0.46;73.10
26112;BME280;13829;48.990;8.346;2023-02-28T03:40:58;101335.06;;;-0.56;73.65
26112;BME280;13829;48.990;8.346;2023-02-28T03:43:31;101331.09;;;-0.38;72.87
26112;BME280;13829;48.990;8.346;2023-02-28T03:46:08;101344.13;;;-0.50;72.87
26112;BME280;13829;48.990;8.346;2023-02-28T03:48:42;101334.69;;;-0.62;74.26
26112;BME280;13829;48.990;8.346;2023-02-28T03:51:14;101332.59;;;-0.41;73.50
26112;BME280;13829;48.990;8.346;2023-02-28T03:53:49;101335.47;;;-0.23;72.87
26112;BME280;13829;48.990;8.346;2023-02-28T03:56:21;101335.38;;;-0.38;73.19
26112;BME280;13829;48.990;8.346;2023-02-28T03:58:57;101332.31;;;-0.59;74.22
26112;BME280;13829;48.990;8.346;2023-02-28T04:01:32;101337.47;;;-0.46;73.72
26112;BME280;13829;48.990;8.346;2023-02-28T04:04:00;101334.09;;;-0.45;73.52
26112;BME280;13829;48.990;8.346;2023-02-28T04:06:30;101338.66;;;-0.54;73.78
26112;BME280;13829;48.990;8.346;2023-02-28T04:08:59;101346.53;;;-0.39;73.90
26112;BME280;13829;48.990;8.346;2023-02-28T04:11:33;101331.00;;;-0.53;73.95
26112;BME280;13829;48.990;8.346;2023-02-28T04:14:00;101334.06;;;-0.58;74.66
26112;BME280;13829;48.990;8.346;2023-02-28T04:16:27;101339.25;;;-0.58;74.68
26112;BME280;13829;48.990;8.346;2023-02-28T04:18:54;101341.31;;;-0.66;74.77
26112;BME280;13829;48.990;8.346;2023-02-28T04:21:27;101339.75;;;-0.51;74.11
26112;BME280;13829;48.990;8.346;2023-02-28T04:23:54;101341.16;;;-0.56;74.34
26112;BME280;13829;48.990;8.346;2023-02-28T04:26:29;101335.19;;;-0.41;73.54
26112;BME280;13829;48.990;8.346;2023-02-28T04:28:56;101332.28;;;-0.32;72.76
26112;BME280;13829;48.990;8.346;2023-02-28T04:31:24;101339.25;;;-0.45;73.22
26112;BME280;13829;48.990;8.346;2023-02-28T04:33:50;101339.47;;;-0.42;73.25
26112;BME280;13829;48.990;8.346;2023-02-28T04:36:18;101331.03;;;-0.39;73.37
26112;BME280;13829;48.990;8.346;2023-02-28T04:38:46;101327.03;;;-0.47;73.46
26112;BME280;13829;48.990;8.346;2023-02-28T04:41:13;101332.19;;;-0.34;73.10
26112;BME280;13829;48.990;8.346;2023-02-28T04:43:42;101336.38;;;-0.36;73.13
26112;BME280;13829;48.990;8.346;2023-02-28T04:46:09;101335.97;;;-0.29;72.64
26112;BME280;13829;48.990;8.346;2023-02-28T04:48:39;101340.94;;;-0.59;73.73
26112;BME280;13829;48.990;8.346;2023-02-28T04:51:09;101336.09;;;-0.54;73.84
26112;BME280;13829;48.990;8.346;2023-02-28T04:53:38;101325.16;;;-0.37;73.67
26112;BME280;13829;48.990;8.346;2023-02-28T04:56:07;101325.63;;;-0.29;73.38
26112;BME280;13829;48.990;8.346;2023-02-28T04:58:35;101342.94;;;-0.68;74.81
26112;BME280;13829;48.990;8.346;2023-02-28T05:01:06;101340.94;;;-0.59;74.07
26112;BME280;13829;48.990;8.346;2023-02-28T05:03:38;101335.38;;;-0.65;74.70
26112;BME280;13829;48.990;8.346;2023-02-28T05:06:06;101344.91;;;-0.64;74.53
26112;BME280;13829;48.990;8.346;2023-02-28T05:08:33;101335.19;;;-0.68;75.01
26112;BME280;13829;48.990;8.346;2023-02-28T05:11:00;101349.59;;;-0.72;75.14
26112;BME280;13829;48.990;8.346;2023-02-28T05:13:28;101351.47;;;-0.69;75.07
26112;BME280;13829;48.990;8.346;2023-02-28T05:15:55;101343.53;;;-0.59;74.80
26112;BME280;13829;48.990;8.346;2023-02-28T05:18:24;101345.09;;;-0.61;74.37
26112;BME280;13829;48.990;8.346;2023-02-28T05:20:50;101346.91;;;-0.60;74.85
26112;BME280;13829;48.990;8.346;2023-02-28T05:23:19;101354.25;;;-0.66;75.02
26112;BME280;13829;48.990;8.346;2023-02-28T05:25:49;101354.25;;;-0.79;75.78
26112;BME280;13829;48.990;8.346;2023-02-28T05:28:17;101357.31;;;-0.85;76.17
26112;BME280;13829;48.990;8.346;2023-02-28T05:30:44;101357.84;;;-0.64;75.44
26112;BME280;13829;48.990;8.346;2023-02-28T05:33:12;101356.03;;;-0.65;75.50
26112;BME280;13829;48.990;8.346;2023-02-28T05:35:42;101348.91;;;-0.56;75.26
26112;BME280;13829;48.990;8.346;2023-02-28T05:38:09;101353.66;;;-0.48;74.41
26112;BME280;13829;48.990;8.346;2023-02-28T05:40:38;101349.47;;;-0.60;74.81
26112;BME280;13829;48.990;8.346;2023-02-28T05:43:09;101356.84;;;-0.53;74.56
26112;BME280;13829;48.990;8.346;2023-02-28T05:45:37;101358.03;;;-0.61;75.13
26112;BME280;13829;48.990;8.346;2023-02-28T05:48:04;101351.88;;;-0.50;74.23
26112;BME280;13829;48.990;8.346;2023-02-28T05:50:31;101352.88;;;-0.34;74.38
26112;BME280;13829;48.990;8.346;2023-02-28T05:53:00;101351.38;;;-0.44;74.54
26112;BME280;13829;48.990;8.346;2023-02-28T05:55:26;101351.97;;;-0.21;73.23
26112;BME280;13829;48.990;8.346;2023-02-28T05:57:53;101356.97;;;-0.38;73.80
26112;BME280;13829;48.990;8.346;2023-02-28T06:00:22;101347.50;;;-0.64;75.54
26112;BME280;13829;48.990;8.346;2023-02-28T06:02:49;101344.13;;;-0.36;74.62
26112;BME280;13829;48.990;8.346;2023-02-28T06:05:18;101342.13;;;-0.54;75.14
26112;BME280;13829;48.990;8.346;2023-02-28T06:07:45;101348.00;;;-0.43;74.33
26112;BME280;13829;48.990;8.346;2023-02-28T06:10:13;101347.13;;;-0.57;74.82
26112;BME280;13829;48.990;8.346;2023-02-28T06:12:41;101356.84;;;-0.53;74.82
26112;BME280;13829;48.990;8.346;2023-02-28T06:15:12;101358.03;;;-0.47;74.39
26112;BME280;13829;48.990;8.346;2023-02-28T06:17:40;101356.75;;;-0.54;75.37
26112;BME280;13829;48.990;8.346;2023-02-28T06:20:09;101357.22;;;-0.60;75.71
26112;BME280;13829;48.990;8.346;2023-02-28T06:22:39;101358.63;;;-0.38;74.31
26112;BME280;13829;48.990;8.346;2023-02-28T06:25:07;101361.91;;;-0.41;74.74
26112;BME280;13829;48.990;8.346;2023-02-28T06:27:36;101366.19;;;-0.41;75.01
26112;BME280;13829;48.990;8.346;2023-02-28T06:30:04;101368.00;;;-0.40;74.57
26112;BME280;13829;48.990;8.346;2023-02-28T06:32:31;101356.84;;;-0.26;74.31
26112;BME280;13829;48.990;8.346;2023-02-28T06:34:58;101367.56;;;-0.33;74.64
26112;BME280;13829;48.990;8.346;2023-02-28T06:37:25;101364.69;;;-0.24;74.19
26112;BME280;13829;48.990;8.346;2023-02-28T06:39:54;101366.19;;;-0.14;74.64
26112;BME280;13829;48.990;8.346;2023-02-28T06:42:21;101369.94;;;-0.09;73.64
26112;BME280;13829;48.990;8.346;2023-02-28T06:44:51;101365.00;;;-0.06;73.47
26112;BME280;13829;48.990;8.346;2023-02-28T06:47:18;101375.72;;;-0.13;73.58
26112;BME280;13829;48.990;8.346;2023-02-28T06:49:45;101379.91;;;-0.15;73.13
26112;BME280;13829;48.990;8.346;2023-02-28T06:52:12;101372.53;;;0.04;72.73
26112;BME280;13829;48.990;8.346;2023-02-28T06:54:39;101382.09;;;0.05;72.40
26112;BME280;13829;48.990;8.346;2023-02-28T06:57:07;101383.13;;;0.22;72.03
26112;BME280;13829;48.990;8.346;2023-02-28T06:59:34;101394.41;;;0.09;71.94
26112;BME280;13829;48.990;8.346;2023-02-28T07:02:03;101401.31;;;0.24;70.90
26112;BME280;13829;48.990;8.346;2023-02-28T07:04:32;101395.00;;;0.05;71.40
26112;BME280;13829;48.990;8.346;2023-02-28T07:06:58;101388.66;;;0.00;72.07
26112;BME280;13829;48.990;8.346;2023-02-28T07:09:25;101398.25;;;0.16;71.46
26112;BME280;13829;48.990;8.346;2023-02-28T07:11:55;101392.78;;;0.25;70.97
26112;BME280;13829;48.990;8.346;2023-02-28T07:14:22;101400.88;;;0.03;71.55
26112;BME280;13829;48.990;8.346;2023-02-28T07:16:49;101397.38;;;0.15;70.90
26112;BME280;13829;48.990;8.346;2023-02-28T07:19:18;101397.00;;;0.09;71.56
26112;BME280;13829;48.990;8.346;2023-02-28T07:21:44;101395.75;;;0.18;70.90
26112;BME280;13829;48.990;8.346;2023-02-28T07:24:11;101395.66;;;0.16;70.96
26112;BME280;13829;48.990;8.346;2023-02-28T07:26:41;101409.88;;;0.23;70.82
26112;BME280;13829;48.990;8.346;2023-02-28T07:29:08;101409.13;;;0.10;71.31
26112;BME280;13829;48.990;8.346;2023-02-28T07:31:35;101413.38;;;0.10;71.08
26112;BME280;13829;48.990;8.346;2023-02-28T07:34:02;101409.31;;;0.13;71.18
26112;BME280;13829;48.990;8.346;2023-02-28T07:36:31;101409.41;;;0.15;71.15
26112;BME280;13829;48.990;8.346;2023-02-28T07:38:58;101407.91;;;0.19;70.94
26112;BME280;13829;48.990;8.346;2023-02-28T07:41:25;101406.72;;;0.13;71.03
26112;BME280;13829;48.990;8.346;2023-02-28T07:43:53;101414.44;;;0.40;69.88
26112;BME280;13829;48.990;8.346;2023-02-28T07:46:21;101412.28;;;0.33;70.12
26112;BME280;13829;48.990;8.346;2023-02-28T07:48:48;101414.63;;;0.43;70.15
26112;BME280;13829;48.990;8.346;2023-02-28T07:51:15;101411.72;;;0.52;69.68
26112;BME280;13829;48.990;8.346;2023-02-28T07:53:43;101412.94;;;0.44;69.79
26112;BME280;13829;48.990;8.346;2023-02-28T07:56:10;101416.84;;;0.37;70.27
26112;BME280;13829;48.990;8.346;2023-02-28T07:58:37;101426.81;;;0.31;69.52
26112;BME280;13829;48.990;8.346;2023-02-28T08:01:08;101422.72;;;0.35;69.55
26112;BME280;13829;48.990;8.346;2023-02-28T08:03:36;101417.50;;;0.48;69.59
26112;BME280;13829;48.990;8.346;2023-02-28T08:06:04;101417.16;;;0.28;70.30
26112;BME280;13829;48.990;8.346;2023-02-28T08:08:32;101415.59;;;0.45;69.77
26112;BME280;13829;48.990;8.346;2023-02-28T08:11:02;101413.22;;;0.48;69.57
26112;BME280;13829;48.990;8.346;2023-02-28T08:13:29;101415.75;;;0.62;68.63
26112;BME280;13829;48.990;8.346;2023-02-28T08:15:57;101419.34;;;0.64;69.11
26112;BME280;13829;48.990;8.346;2023-02-28T08:18:24;101422.56;;;0.60;69.04
26112;BME280;13829;48.990;8.346;2023-02-28T08:20:51;101431.50;;;0.65;68.47
26112;BME280;13829;48.990;8.346;2023-02-28T08:23:18;101425.72;;;0.56;68.35
26112;BME280;13829;48.990;8.346;2023-02-28T08:25:52;101428.13;;;0.53;68.51
26112;BME280;13829;48.990;8.346;2023-02-28T08:28:20;101414.53;;;0.70;68.20
26112;BME280;13829;48.990;8.346;2023-02-28T08:30:47;101426.22;;;0.63;67.90
26112;BME280;13829;48.990;8.346;2023-02-28T08:33:14;101423.31;;;0.72;68.35
26112;BME280;13829;48.990;8.346;2023-02-28T08:35:41;101422.19;;;0.97;66.87
26112;BME280;13829;48.990;8.346;2023-02-28T08:38:08;101423.91;;;0.96;67.19
26112;BME280;13829;48.990;8.346;2023-02-28T08:40:35;101427.63;;;0.87;66.73
26112;BME280;13829;48.990;8.346;2023-02-28T08:43:02;101436.91;;;0.83;66.72
26112;BME280;13829;48.990;8.346;2023-02-28T08:45:30;101432.66;;;0.98;66.45
26112;BME280;13829;48.990;8.346;2023-02-28T08:47:57;101436.75;;;0.95;66.86
26112;BME280;13829;48.990;8.346;2023-02-28T08:50:24;101430.19;;;1.00;66.17
26112;BME280;13829;48.990;8.346;2023-02-28T08:52:51;101438.19;;;1.05;66.50
26112;BME280;13829;48.990;8.346;2023-02-28T08:55:18;101439.13;;;1.05;66.07
26112;BME280;13829;48.990;8.346;2023-02-28T08:57:45;101436.69;;;1.08;65.82
26112;BME280;13829;48.990;8.346;2023-02-28T09:00:13;101441.81;;;1.22;65.71
26112;BME280;13829;48.990;8.346;2023-02-28T09:02:41;101437.88;;;1.28;65.14
26112;BME280;13829;48.990;8.346;2023-02-28T09:05:09;101417.59;;;1.51;64.33
26112;BME280;13829;48.990;8.346;2023-02-28T09:07:36;101436.53;;;1.35;64.23
26112;BME280;13829;48.990;8.346;2023-02-28T09:10:04;101416.97;;;1.55;64.53
26112;BME280;13829;48.990;8.346;2023-02-28T09:12:34;101431.81;;;1.58;63.60
26112;BME280;13829;48.990;8.346;2023-02-28T09:15:01;101426.97;;;1.64;63.88
26112;BME280;13829;48.990;8.346;2023-02-28T09:17:28;101420.38;;;1.69;63.14
26112;BME280;13829;48.990;8.346;2023-02-28T09:19:57;101429.81;;;1.84;63.14
26112;BME280;13829;48.990;8.346;2023-02-28T09:22:24;101429.56;;;1.94;62.38
26112;BME280;13829;48.990;8.346;2023-02-28T09:24:51;101428.22;;;1.86;62.67
26112;BME280;13829;48.990;8.346;2023-02-28T09:27:18;101436.19;;;1.89;61.70
26112;BME280;13829;48.990;8.346;2023-02-28T09:29:45;101425.53;;;1.69;62.28
26112;BME280;13829;48.990;8.346;2023-02-28T09:32:12;101425.41;;;1.98;61.60
26112;BME280;13829;48.990;8.346;2023-02-28T09:34:39;101418.81;;;1.88;61.76
26112;BME280;13829;48.990;8.346;2023-02-28T09:37:07;101433.16;;;2.12;61.71
26112;BME280;13829;48.990;8.346;2023-02-28T09:39:34;101431.84;;;2.04;61.40
26112;BME280;13829;48.990;8.346;2023-02-28T09:42:02;101430.63;;;2.14;60.00
26112;BME280;13829;48.990;8.346;2023-02-28T09:44:36;101420.47;;;2.02;61.11
26112;BME280;13829;48.990;8.346;2023-02-28T09:47:14;101432.72;;;2.05;60.88
26112;BME280;13829;48.990;8.346;2023-02-28T09:49:47;101419.03;;;2.07;61.24
26112;BME280;13829;48.990;8.346;2023-02-28T09:52:19;101414.31;;;2.48;60.48
26112;BME280;13829;48.990;8.346;2023-02-28T09:54:47;101420.19;;;2.77;58.65
26112;BME280;13829;48.990;8.346;2023-02-28T09:57:27;101423.31;;;2.22;59.51
26112;BME280;13829;48.990;8.346;2023-02-28T10:00:10;101418.06;;;2.53;59.58
26112;BME280;13829;48.990;8.346;2023-02-28T10:03:10;101420.44;;;2.65;58.54
26112;BME280;13829;48.990;8.346;2023-02-28T10:05:51;101426.44;;;2.81;58.41
26112;BME280;13829;48.990;8.346;2023-02-28T10:08:27;101411.25;;;3.05;56.92
26112;BME280;13829;48.990;8.346;2023-02-28T10:10:59;101416.63;;;3.42;56.11
26112;BME280;13829;48.990;8.346;2023-02-28T10:13:34;101422.41;;;3.71;56.10
26112;BME280;13829;48.990;8.346;2023-02-28T10:16:07;101419.13;;;3.94;55.19
26112;BME280;13829;48.990;8.346;2023-02-28T10:18:44;101429.97;;;4.21;54.60
26112;BME280;13829;48.990;8.346;2023-02-28T10:21:21;101425.94;;;3.73;53.86
26112;BME280;13829;48.990;8.346;2023-02-28T10:24:03;101429.75;;;3.28;55.23
26112;BME280;13829;48.990;8.346;2023-02-28T10:26:32;101420.78;;;3.39;55.16
26112;BME280;13829;48.990;8.346;2023-02-28T10:28:59;101430.00;;;3.50;55.21
26112;BME280;13829;48.990;8.346;2023-02-28T10:31:28;101438.16;;;3.05;56.09
26112;BME280;13829;48.990;8.346;2023-02-28T10:33:55;101432.53;;;2.81;56.76
26112;BME280;13829;48.990;8.346;2023-02-28T10:36:22;101431.66;;;2.97;56.54
26112;BME280;13829;48.990;8.346;2023-02-28T10:38:50;101443.44;;;2.90;57.22
26112;BME280;13829;48.990;8.346;2023-02-28T10:41:29;101439.59;;;2.84;56.92
26112;BME280;13829;48.990;8.346;2023-02-28T10:44:18;101445.63;;;2.83;57.12
26112;BME280;13829;48.990;8.346;2023-02-28T10:46:48;101425.31;;;2.92;57.33
26112;BME280;13829;48.990;8.346;2023-02-28T10:49:21;101423.50;;;3.07;57.44
26112;BME280;13829;48.990;8.346;2023-02-28T10:51:52;101423.56;;;3.60;55.75
26112;BME280;13829;48.990;8.346;2023-02-28T10:54:24;101421.91;;;3.62;55.57
26112;BME280;13829;48.990;8.346;2023-02-28T10:57:17;101421.91;;;3.62;55.32
26112;BME280;13829;48.990;8.346;2023-02-28T10:59:45;101433.31;;;3.30;56.10
26112;BME280;13829;48.990;8.346;2023-02-28T11:02:32;101434.22;;;3.14;56.32
26112;BME280;13829;48.990;8.346;2023-02-28T11:04:59;101430.50;;;3.08;56.93
26112;BME280;13829;48.990;8.346;2023-02-28T11:07:27;101422.81;;;3.28;55.88
26112;BME280;13829;48.990;8.346;2023-02-28T11:09:58;101437.56;;;3.11;56.70
26112;BME280;13829;48.990;8.346;2023-02-28T11:12:30;101436.69;;;3.10;56.26
26112;BME280;13829;48.990;8.346;2023-02-28T11:15:04;101430.97;;;3.01;56.64
26112;BME280;13829;48.990;8.346;2023-02-28T11:17:33;101438.97;;;2.88;56.83
26112;BME280;13829;48.990;8.346;2023-02-28T11:20:04;101435.56;;;2.89;56.69
26112;BME280;13829;48.990;8.346;2023-02-28T11:22:37;101418.88;;;3.18;56.38
26112;BME280;13829;48.990;8.346;2023-02-28T11:25:13;101428.47;;;3.19;56.41
26112;BME280;13829;48.990;8.346;2023-02-28T11:27:48;101409.81;;;3.28;56.09
26112;BME280;13829;48.990;8.346;2023-02-28T11:30:33;101418.28;;;3.24;55.89
26112;BME280;13829;48.990;8.346;2023-02-28T11:33:04;101411.72;;;3.31;56.04
26112;BME280;13829;48.990;8.346;2023-02-28T11:35:47;101406.66;;;3.34;56.40
26112;BME280;13829;48.990;8.346;2023-02-28T11:38:15;101411.88;;;3.52;55.34
26112;BME280;13829;48.990;8.346;2023-02-28T11:40:51;101417.94;;;3.34;55.48
26112;BME280;13829;48.990;8.346;2023-02-28T11:43:44;101396.31;;;3.35;55.33
26112;BME280;13829;48.990;8.346;2023-02-28T11:46:25;101399.53;;;3.30;55.61
26112;BME280;13829;48.990;8.346;2023-02-28T11:49:12;101397.66;;;3.27;56.02
26112;BME280;13829;48.990;8.346;2023-02-28T11:51:48;101408.06;;;3.27;56.17
26112;BME280;13829;48.990;8.346;2023-02-28T11:54:33;101402.00;;;3.45;55.74
26112;BME280;13829;48.990;8.346;2023-02-28T11:57:19;101390.41;;;3.56;55.56
26112;BME280;13829;48.990;8.346;2023-02-28T12:00:01;101389.31;;;3.87;54.35
26112;BME280;13829;48.990;8.346;2023-02-28T12:02:48;101393.25;;;3.79;54.02
26112;BME280;13829;48.990;8.346;2023-02-28T12:05:29;101392.34;;;3.96;53.86
26112;BME280;13829;48.990;8.346;2023-02-28T12:08:15;101399.34;;;3.97;53.73
26112;BME280;13829;48.990;8.346;2023-02-28T12:11:01;101400.53;;;3.86;54.59
26112;BME280;13829;48.990;8.346;2023-02-28T12:13:44;101391.59;;;4.17;52.97
26112;BME280;13829;48.990;8.346;2023-02-28T12:16:45;101390.94;;;4.03;52.74
26112;BME280;13829;48.990;8.346;2023-02-28T12:19:20;101388.31;;;4.40;52.13
26112;BME280;13829;48.990;8.346;2023-02-28T12:22:27;101397.41;;;4.68;50.67
26112;BME280;13829;48.990;8.346;2023-02-28T12:25:46;101392.59;;;4.38;51.31
26112;BME280;13829;48.990;8.346;2023-02-28T12:28:24;101381.63;;;4.85;50.39
26112;BME280;13829;48.990;8.346;2023-02-28T12:31:00;101379.56;;;4.97;49.87
26112;BME280;13829;48.990;8.346;2023-02-28T12:33:35;101370.28;;;5.04;50.67
26112;BME280;13829;48.990;8.346;2023-02-28T12:36:13;101377.78;;;4.96;49.50
26112;BME280;13829;48.990;8.346;2023-02-28T12:38:48;101364.00;;;5.20;49.06
26112;BME280;13829;48.990;8.346;2023-02-28T12:41:19;101367.06;;;4.90;49.79
26112;BME280;13829;48.990;8.346;2023-02-28T12:43:58;101374.09;;;4.71;49.81
26112;BME280;13829;48.990;8.346;2023-02-28T12:46:32;101357.19;;;5.02;50.24
26112;BME280;13829;48.990;8.346;2023-02-28T12:49:10;101342.19;;;5.60;49.46
26112;BME280;13829;48.990;8.346;2023-02-28T12:51:44;101359.06;;;5.26;48.93
26112;BME280;13829;48.990;8.346;2023-02-28T12:54:22;101352.88;;;5.24;48.64
26112;BME280;13829;48.990;8.346;2023-02-28T12:57:02;101343.41;;;5.26;48.84
26112;BME280;13829;48.990;8.346;2023-02-28T12:59:40;101343.47;;;5.49;48.68
26112;BME280;13829;48.990;8.346;2023-02-28T13:02:39;101347.78;;;5.48;48.50
26112;BME280;13829;48.990;8.346;2023-02-28T13:05:58;101344.13;;;5.22;48.60
26112;BME280;13829;48.990;8.346;2023-02-28T13:09:03;101343.91;;;5.17;48.87
26112;BME280;13829;48.990;8.346;2023-02-28T13:11:38;101349.31;;;5.01;48.34
26112;BME280;13829;48.990;8.346;2023-02-28T13:14:19;101352.47;;;4.94;48.75
26112;BME280;13829;48.990;8.346;2023-02-28T13:17:09;101351.91;;;5.01;49.12
26112;BME280;13829;48.990;8.346;2023-02-28T13:19:41;101336.22;;;4.99;49.12
26112;BME280;13829;48.990;8.346;2023-02-28T13:22:43;101354.84;;;5.09;49.00
26112;BME280;13829;48.990;8.346;2023-02-28T13:25:53;101335.31;;;5.20;49.38